sensor_id;sensor_type;location;lat;lon;timestamp;P1;durP1;ratioP1;P2;durP2;ratioP2
8540;SDS011;4308;51.294;6.590;2023-01-09T00:00:33;1.60;;;1.10;;
8540;SDS011;4308;51.294;6.590;2023-01-09T00:03:01;1.37;;;1.07;;
8540;SDS011;4308;51.294;6.590;2023-01-09T00:05:29;2.67;;;1.00;;
8540;SDS011;4308;51.294;6.590;2023-01-09T00:07:56;1.20;;;1.10;;
8540;SDS011;4308;51.294;6.590;2023-01-09T00:10:24;1.60;;;0.60;;
8540;SDS011;4308;51.294;6.590;2023-01-09T00:12:52;1.00;;;0.90;;
8540;SDS011;4308;51.294;6.590;2023-01-09T00:15:19;0.87;;;0.60;;
8540;SDS011;4308;51.294;6.590;2023-01-09T00:17:47;0.60;;;0.60;;
8540;SDS011;4308;51.294;6.590;2023-01-09T00:20:14;0.50;;;0.50;;
8540;SDS011;4308;51.294;6.590;2023-01-09T00:22:42;0.70;;;0.70;;
8540;SDS011;4308;51.294;6.590;2023-01-09T00:25:10;0.40;;;0.40;;
8540;SDS011;4308;51.294;6.590;2023-01-09T00:27:37;0.67;;;0.50;;
8540;SDS011;4308;51.294;6.590;2023-01-09T00:30:05;0.60;;;0.60;;
8540;SDS011;4308;51.294;6.590;2023-01-09T00:32:36;0.53;;;0.53;;
8540;SDS011;4308;51.294;6.590;2023-01-09T00:35:03;0.50;;;0.50;;
8540;SDS011;4308;51.294;6.590;2023-01-09T00:37:31;1.33;;;0.63;;
8540;SDS011;4308;51.294;6.590;2023-01-09T00:39:59;0.60;;;0.50;;
8540;SDS011;4308;51.294;6.590;2023-01-09T00:42:27;0.60;;;0.60;;
8540;SDS011;4308;51.294;6.590;2023-01-09T00:44:58;1.23;;;0.60;;
8540;SDS011;4308;51.294;6.590;2023-01-09T00:47:30;0.57;;;0.57;;
8540;SDS011;4308;51.294;6.590;2023-01-09T00:49:59;0.57;;;0.57;;
8540;SDS011;4308;51.294;6.590;2023-01-09T00:52:30;0.80;;;0.80;;
8540;SDS011;4308;51.294;6.590;2023-01-09T00:54:58;1.43;;;0.70;;
8540;SDS011;4308;51.294;6.590;2023-01-09T00:57:26;0.90;;;0.80;;
8540;SDS011;4308;51.294;6.590;2023-01-09T00:59:54;0.67;;;0.50;;
8540;SDS011;4308;51.294;6.590;2023-01-09T01:02:21;1.63;;;0.70;;
8540;SDS011;4308;51.294;6.590;2023-01-09T01:04:49;0.73;;;0.57;;
8540;SDS011;4308;51.294;6.590;2023-01-09T01:07:17;0.80;;;0.70;;
8540;SDS011;4308;51.294;6.590;2023-01-09T01:09:44;0.80;;;0.70;;
8540;SDS011;4308;51.294;6.590;2023-01-09T01:12:12;0.60;;;0.60;;
8540;SDS011;4308;51.294;6.590;2023-01-09T01:14:47;1.33;;;0.90;;
8540;SDS011;4308;51.294;6.590;2023-01-09T01:17:14;1.03;;;0.80;;
8540;SDS011;4308;51.294;6.590;2023-01-09T01:19:42;0.70;;;0.70;;
8540;SDS011;4308;51.294;6.590;2023-01-09T01:22:09;0.83;;;0.83;;
8540;SDS011;4308;51.294;6.590;2023-01-09T01:24:37;0.60;;;0.60;;
8540;SDS011;4308;51.294;6.590;2023-01-09T01:27:04;0.90;;;0.80;;
8540;SDS011;4308;51.294;6.590;2023-01-09T01:29:32;0.97;;;0.80;;
8540;SDS011;4308;51.294;6.590;2023-01-09T01:32:00;0.70;;;0.70;;
8540;SDS011;4308;51.294;6.590;2023-01-09T01:34:28;0.50;;;0.50;;
8540;SDS011;4308;51.294;6.590;2023-01-09T01:36:55;0.70;;;0.70;;
8540;SDS011;4308;51.294;6.590;2023-01-09T01:39:23;2.00;;;0.80;;
8540;SDS011;4308;51.294;6.590;2023-01-09T01:41:50;2.20;;;0.90;;
8540;SDS011;4308;51.294;6.590;2023-01-09T01:47:04;0.70;;;0.70;;
8540;SDS011;4308;51.294;6.590;2023-01-09T01:49:32;0.97;;;0.90;;
8540;SDS011;4308;51.294;6.590;2023-01-09T01:52:00;0.87;;;0.60;;
8540;SDS011;4308;51.294;6.590;2023-01-09T01:54:28;1.33;;;0.90;;
8540;SDS011;4308;51.294;6.590;2023-01-09T01:56:57;0.83;;;0.60;;
8540;SDS011;4308;51.294;6.590;2023-01-09T01:59:28;1.10;;;0.90;;
8540;SDS011;4308;51.294;6.590;2023-01-09T02:02:06;3.20;;;0.93;;
8540;SDS011;4308;51.294;6.590;2023-01-09T02:04:35;1.17;;;0.90;;
8540;SDS011;4308;51.294;6.590;2023-01-09T02:07:06;2.77;;;0.80;;
8540;SDS011;4308;51.294;6.590;2023-01-09T02:09:38;1.07;;;0.73;;
8540;SDS011;4308;51.294;6.590;2023-01-09T02:12:13;2.27;;;1.17;;
8540;SDS011;4308;51.294;6.590;2023-01-09T02:14:41;1.13;;;0.90;;
8540;SDS011;4308;51.294;6.590;2023-01-09T02:17:15;2.53;;;1.00;;
8540;SDS011;4308;51.294;6.590;2023-01-09T02:20:14;2.90;;;1.20;;
8540;SDS011;4308;51.294;6.590;2023-01-09T02:22:36;1.10;;;0.90;;
8540;SDS011;4308;51.294;6.590;2023-01-09T02:25:28;2.30;;;1.10;;
8540;SDS011;4308;51.294;6.590;2023-01-09T02:30:39;1.10;;;0.90;;
8540;SDS011;4308;51.294;6.590;2023-01-09T02:43:39;2.30;;;1.00;;
8540;SDS011;4308;51.294;6.590;2023-01-09T02:46:17;2.57;;;0.90;;
8540;SDS011;4308;51.294;6.590;2023-01-09T02:48:46;2.23;;;1.10;;
8540;SDS011;4308;51.294;6.590;2023-01-09T02:54:03;2.57;;;1.10;;
8540;SDS011;4308;51.294;6.590;2023-01-09T02:56:54;3.37;;;1.10;;
8540;SDS011;4308;51.294;6.590;2023-01-09T02:59:26;3.87;;;1.20;;
8540;SDS011;4308;51.294;6.590;2023-01-09T03:04:45;2.07;;;1.13;;
8540;SDS011;4308;51.294;6.590;2023-01-09T03:07:18;1.97;;;1.43;;
8540;SDS011;4308;51.294;6.590;2023-01-09T03:09:48;2.20;;;1.27;;
8540;SDS011;4308;51.294;6.590;2023-01-09T03:12:17;1.53;;;1.23;;
8540;SDS011;4308;51.294;6.590;2023-01-09T03:14:49;1.43;;;1.17;;
8540;SDS011;4308;51.294;6.590;2023-01-09T03:17:19;1.80;;;1.30;;
8540;SDS011;4308;51.294;6.590;2023-01-09T03:19:49;2.50;;;1.30;;
8540;SDS011;4308;51.294;6.590;2023-01-09T03:22:16;3.73;;;1.33;;
8540;SDS011;4308;51.294;6.590;2023-01-09T03:24:44;2.27;;;1.40;;
8540;SDS011;4308;51.294;6.590;2023-01-09T03:27:12;3.43;;;1.70;;
8540;SDS011;4308;51.294;6.590;2023-01-09T03:29:39;5.53;;;2.27;;
8540;SDS011;4308;51.294;6.590;2023-01-09T03:32:07;2.27;;;1.47;;
8540;SDS011;4308;51.294;6.590;2023-01-09T03:34:35;2.80;;;1.67;;
8540;SDS011;4308;51.294;6.590;2023-01-09T03:37:02;7.00;;;2.27;;
8540;SDS011;4308;51.294;6.590;2023-01-09T03:39:30;6.13;;;1.70;;
8540;SDS011;4308;51.294;6.590;2023-01-09T03:41:58;4.97;;;1.53;;
8540;SDS011;4308;51.294;6.590;2023-01-09T03:44:25;1.97;;;1.73;;
8540;SDS011;4308;51.294;6.590;2023-01-09T03:46:53;2.80;;;1.70;;
8540;SDS011;4308;51.294;6.590;2023-01-09T03:49:20;5.70;;;2.03;;
8540;SDS011;4308;51.294;6.590;2023-01-09T03:51:48;2.93;;;1.83;;
8540;SDS011;4308;51.294;6.590;2023-01-09T03:54:15;4.63;;;2.00;;
8540;SDS011;4308;51.294;6.590;2023-01-09T03:56:43;4.30;;;2.03;;
8540;SDS011;4308;51.294;6.590;2023-01-09T03:59:13;3.00;;;2.30;;
8540;SDS011;4308;51.294;6.590;2023-01-09T04:01:42;2.97;;;1.80;;
8540;SDS011;4308;51.294;6.590;2023-01-09T04:04:10;2.90;;;1.90;;
8540;SDS011;4308;51.294;6.590;2023-01-09T04:06:37;5.90;;;2.13;;
8540;SDS011;4308;51.294;6.590;2023-01-09T04:09:05;5.03;;;2.23;;
8540;SDS011;4308;51.294;6.590;2023-01-09T04:11:33;3.47;;;2.23;;
8540;SDS011;4308;51.294;6.590;2023-01-09T04:14:00;5.80;;;1.80;;
8540;SDS011;4308;51.294;6.590;2023-01-09T04:16:28;7.53;;;2.23;;
8540;SDS011;4308;51.294;6.590;2023-01-09T04:18:56;11.47;;;2.30;;
8540;SDS011;4308;51.294;6.590;2023-01-09T04:21:23;4.23;;;2.00;;
8540;SDS011;4308;51.294;6.590;2023-01-09T04:23:51;4.77;;;1.93;;
8540;SDS011;4308;51.294;6.590;2023-01-09T04:26:18;4.27;;;2.17;;
8540;SDS011;4308;51.294;6.590;2023-01-09T04:28:46;7.57;;;1.87;;
8540;SDS011;4308;51.294;6.590;2023-01-09T04:31:13;7.97;;;1.53;;
8540;SDS011;4308;51.294;6.590;2023-01-09T04:33:41;4.13;;;1.90;;
8540;SDS011;4308;51.294;6.590;2023-01-09T04:36:09;5.53;;;2.20;;
8540;SDS011;4308;51.294;6.590;2023-01-09T04:38:36;3.70;;;1.63;;
8540;SDS011;4308;51.294;6.590;2023-01-09T04:41:04;5.67;;;2.00;;
8540;SDS011;4308;51.294;6.590;2023-01-09T04:43:31;3.53;;;1.57;;
8540;SDS011;4308;51.294;6.590;2023-01-09T04:45:59;3.53;;;1.57;;
8540;SDS011;4308;51.294;6.590;2023-01-09T04:48:27;7.17;;;1.80;;
8540;SDS011;4308;51.294;6.590;2023-01-09T04:50:54;5.70;;;1.60;;
8540;SDS011;4308;51.294;6.590;2023-01-09T04:53:22;9.27;;;1.60;;
8540;SDS011;4308;51.294;6.590;2023-01-09T04:55:49;5.37;;;2.00;;
8540;SDS011;4308;51.294;6.590;2023-01-09T04:58:17;5.13;;;1.67;;
8540;SDS011;4308;51.294;6.590;2023-01-09T05:00:52;2.17;;;1.40;;
8540;SDS011;4308;51.294;6.590;2023-01-09T05:03:20;2.67;;;1.37;;
8540;SDS011;4308;51.294;6.590;2023-01-09T05:05:47;3.53;;;1.33;;
8540;SDS011;4308;51.294;6.590;2023-01-09T05:08:15;9.07;;;1.60;;
8540;SDS011;4308;51.294;6.590;2023-01-09T05:10:42;7.07;;;1.30;;
8540;SDS011;4308;51.294;6.590;2023-01-09T05:13:10;5.43;;;1.60;;
8540;SDS011;4308;51.294;6.590;2023-01-09T05:15:37;2.57;;;1.00;;
8540;SDS011;4308;51.294;6.590;2023-01-09T05:18:05;3.50;;;1.00;;
8540;SDS011;4308;51.294;6.590;2023-01-09T05:20:32;5.43;;;1.17;;
8540;SDS011;4308;51.294;6.590;2023-01-09T05:23:00;10.33;;;1.50;;
8540;SDS011;4308;51.294;6.590;2023-01-09T05:25:27;3.73;;;1.40;;
8540;SDS011;4308;51.294;6.590;2023-01-09T05:27:55;6.07;;;1.40;;
8540;SDS011;4308;51.294;6.590;2023-01-09T05:30:22;6.73;;;1.47;;
8540;SDS011;4308;51.294;6.590;2023-01-09T05:32:50;2.87;;;1.30;;
8540;SDS011;4308;51.294;6.590;2023-01-09T05:35:18;3.10;;;1.00;;
8540;SDS011;4308;51.294;6.590;2023-01-09T05:37:45;5.60;;;1.53;;
8540;SDS011;4308;51.294;6.590;2023-01-09T05:40:13;7.60;;;1.50;;
8540;SDS011;4308;51.294;6.590;2023-01-09T05:42:41;5.40;;;1.77;;
8540;SDS011;4308;51.294;6.590;2023-01-09T05:45:09;5.33;;;1.20;;
8540;SDS011;4308;51.294;6.590;2023-01-09T05:47:36;3.07;;;1.23;;
8540;SDS011;4308;51.294;6.590;2023-01-09T05:50:04;4.37;;;1.33;;
8540;SDS011;4308;51.294;6.590;2023-01-09T05:52:32;6.73;;;1.50;;
8540;SDS011;4308;51.294;6.590;2023-01-09T05:54:59;3.70;;;1.47;;
8540;SDS011;4308;51.294;6.590;2023-01-09T05:57:27;3.90;;;1.40;;
8540;SDS011;4308;51.294;6.590;2023-01-09T05:59:54;3.80;;;1.30;;
8540;SDS011;4308;51.294;6.590;2023-01-09T06:02:22;4.90;;;1.30;;
8540;SDS011;4308;51.294;6.590;2023-01-09T06:04:50;5.27;;;1.53;;
8540;SDS011;4308;51.294;6.590;2023-01-09T06:07:17;5.17;;;1.10;;
8540;SDS011;4308;51.294;6.590;2023-01-09T06:09:49;6.50;;;1.40;;
8540;SDS011;4308;51.294;6.590;2023-01-09T06:12:16;6.67;;;1.17;;
8540;SDS011;4308;51.294;6.590;2023-01-09T06:14:44;6.93;;;1.83;;
8540;SDS011;4308;51.294;6.590;2023-01-09T06:17:11;9.33;;;2.20;;
8540;SDS011;4308;51.294;6.590;2023-01-09T06:19:39;4.53;;;1.50;;
8540;SDS011;4308;51.294;6.590;2023-01-09T06:22:07;8.50;;;1.50;;
8540;SDS011;4308;51.294;6.590;2023-01-09T06:24:34;4.77;;;1.40;;
8540;SDS011;4308;51.294;6.590;2023-01-09T06:27:02;7.17;;;1.30;;
8540;SDS011;4308;51.294;6.590;2023-01-09T06:29:29;7.47;;;1.60;;
8540;SDS011;4308;51.294;6.590;2023-01-09T06:31:57;5.33;;;1.20;;
8540;SDS011;4308;51.294;6.590;2023-01-09T06:34:25;2.70;;;1.60;;
8540;SDS011;4308;51.294;6.590;2023-01-09T06:36:52;6.43;;;1.77;;
8540;SDS011;4308;51.294;6.590;2023-01-09T06:39:20;4.60;;;1.47;;
8540;SDS011;4308;51.294;6.590;2023-01-09T06:41:48;7.93;;;2.67;;
8540;SDS011;4308;51.294;6.590;2023-01-09T06:44:15;7.13;;;1.30;;
8540;SDS011;4308;51.294;6.590;2023-01-09T06:46:43;4.33;;;1.07;;
8540;SDS011;4308;51.294;6.590;2023-01-09T06:49:10;5.80;;;1.87;;
8540;SDS011;4308;51.294;6.590;2023-01-09T06:51:38;7.27;;;1.83;;
8540;SDS011;4308;51.294;6.590;2023-01-09T06:54:06;5.73;;;1.60;;
8540;SDS011;4308;51.294;6.590;2023-01-09T06:56:33;7.87;;;1.40;;
8540;SDS011;4308;51.294;6.590;2023-01-09T06:59:01;6.73;;;1.53;;
8540;SDS011;4308;51.294;6.590;2023-01-09T07:01:29;5.03;;;1.63;;
8540;SDS011;4308;51.294;6.590;2023-01-09T07:03:56;7.03;;;1.50;;
8540;SDS011;4308;51.294;6.590;2023-01-09T07:06:24;7.83;;;1.40;;
8540;SDS011;4308;51.294;6.590;2023-01-09T07:08:52;5.63;;;1.37;;
8540;SDS011;4308;51.294;6.590;2023-01-09T07:11:19;4.80;;;1.37;;
8540;SDS011;4308;51.294;6.590;2023-01-09T07:13:47;4.87;;;1.83;;
8540;SDS011;4308;51.294;6.590;2023-01-09T07:16:14;3.90;;;1.70;;
8540;SDS011;4308;51.294;6.590;2023-01-09T07:18:42;6.17;;;1.93;;
8540;SDS011;4308;51.294;6.590;2023-01-09T07:21:10;12.37;;;1.83;;
8540;SDS011;4308;51.294;6.590;2023-01-09T07:23:38;7.87;;;1.40;;
8540;SDS011;4308;51.294;6.590;2023-01-09T07:26:05;8.03;;;1.80;;
8540;SDS011;4308;51.294;6.590;2023-01-09T07:28:33;8.23;;;1.90;;
8540;SDS011;4308;51.294;6.590;2023-01-09T07:31:00;4.93;;;1.43;;
8540;SDS011;4308;51.294;6.590;2023-01-09T07:33:28;7.40;;;2.00;;
8540;SDS011;4308;51.294;6.590;2023-01-09T07:35:56;6.20;;;1.87;;
8540;SDS011;4308;51.294;6.590;2023-01-09T07:38:23;5.90;;;1.53;;
8540;SDS011;4308;51.294;6.590;2023-01-09T07:40:51;5.30;;;1.20;;
8540;SDS011;4308;51.294;6.590;2023-01-09T07:43:18;9.70;;;2.10;;
8540;SDS011;4308;51.294;6.590;2023-01-09T07:45:46;6.23;;;1.53;;
8540;SDS011;4308;51.294;6.590;2023-01-09T07:48:13;9.03;;;1.70;;
8540;SDS011;4308;51.294;6.590;2023-01-09T07:50:41;6.90;;;1.50;;
8540;SDS011;4308;51.294;6.590;2023-01-09T07:53:09;7.80;;;2.10;;
8540;SDS011;4308;51.294;6.590;2023-01-09T07:55:36;7.30;;;1.70;;
8540;SDS011;4308;51.294;6.590;2023-01-09T07:58:04;6.03;;;1.80;;
8540;SDS011;4308;51.294;6.590;2023-01-09T08:00:31;4.80;;;1.90;;
8540;SDS011;4308;51.294;6.590;2023-01-09T08:02:59;6.03;;;1.40;;
8540;SDS011;4308;51.294;6.590;2023-01-09T08:05:27;9.07;;;2.20;;
8540;SDS011;4308;51.294;6.590;2023-01-09T08:07:54;7.80;;;1.60;;
8540;SDS011;4308;51.294;6.590;2023-01-09T08:10:22;5.93;;;1.53;;
8540;SDS011;4308;51.294;6.590;2023-01-09T08:12:49;6.63;;;1.67;;
8540;SDS011;4308;51.294;6.590;2023-01-09T08:15:17;6.00;;;1.97;;
8540;SDS011;4308;51.294;6.590;2023-01-09T08:17:45;6.73;;;1.63;;
8540;SDS011;4308;51.294;6.590;2023-01-09T08:20:13;8.60;;;1.40;;
8540;SDS011;4308;51.294;6.590;2023-01-09T08:22:42;6.60;;;2.17;;
8540;SDS011;4308;51.294;6.590;2023-01-09T08:25:09;6.73;;;1.57;;
8540;SDS011;4308;51.294;6.590;2023-01-09T08:27:38;3.17;;;1.10;;
8540;SDS011;4308;51.294;6.590;2023-01-09T08:30:06;6.30;;;1.87;;
8540;SDS011;4308;51.294;6.590;2023-01-09T08:32:34;8.80;;;2.03;;
8540;SDS011;4308;51.294;6.590;2023-01-09T08:35:02;3.77;;;1.43;;
8540;SDS011;4308;51.294;6.590;2023-01-09T08:37:30;3.83;;;1.83;;
8540;SDS011;4308;51.294;6.590;2023-01-09T08:39:57;11.17;;;2.00;;
8540;SDS011;4308;51.294;6.590;2023-01-09T08:42:25;5.37;;;1.83;;
8540;SDS011;4308;51.294;6.590;2023-01-09T08:44:53;4.73;;;1.50;;
8540;SDS011;4308;51.294;6.590;2023-01-09T08:47:21;10.77;;;2.27;;
8540;SDS011;4308;51.294;6.590;2023-01-09T08:49:49;4.20;;;1.70;;
8540;SDS011;4308;51.294;6.590;2023-01-09T08:52:17;7.80;;;2.33;;
8540;SDS011;4308;51.294;6.590;2023-01-09T08:54:45;8.23;;;2.03;;
8540;SDS011;4308;51.294;6.590;2023-01-09T08:57:12;8.80;;;2.53;;
8540;SDS011;4308;51.294;6.590;2023-01-09T08:59:40;11.17;;;2.03;;
8540;SDS011;4308;51.294;6.590;2023-01-09T09:02:08;5.67;;;1.40;;
8540;SDS011;4308;51.294;6.590;2023-01-09T09:04:35;10.27;;;1.60;;
8540;SDS011;4308;51.294;6.590;2023-01-09T09:07:03;6.60;;;1.60;;
8540;SDS011;4308;51.294;6.590;2023-01-09T09:09:31;4.67;;;1.20;;
8540;SDS011;4308;51.294;6.590;2023-01-09T09:12:01;4.13;;;1.47;;
8540;SDS011;4308;51.294;6.590;2023-01-09T09:14:28;4.77;;;1.83;;
8540;SDS011;4308;51.294;6.590;2023-01-09T09:16:56;2.63;;;1.10;;
8540;SDS011;4308;51.294;6.590;2023-01-09T09:19:23;4.07;;;1.33;;
8540;SDS011;4308;51.294;6.590;2023-01-09T09:21:51;8.27;;;1.60;;
8540;SDS011;4308;51.294;6.590;2023-01-09T09:24:19;3.47;;;1.20;;
8540;SDS011;4308;51.294;6.590;2023-01-09T09:26:46;6.53;;;1.60;;
8540;SDS011;4308;51.294;6.590;2023-01-09T09:29:14;5.97;;;1.67;;
8540;SDS011;4308;51.294;6.590;2023-01-09T09:31:41;7.13;;;1.80;;
8540;SDS011;4308;51.294;6.590;2023-01-09T09:34:09;2.10;;;1.43;;
8540;SDS011;4308;51.294;6.590;2023-01-09T09:36:37;5.23;;;1.63;;
8540;SDS011;4308;51.294;6.590;2023-01-09T09:39:04;8.03;;;1.80;;
8540;SDS011;4308;51.294;6.590;2023-01-09T09:46:51;5.17;;;1.60;;
8540;SDS011;4308;51.294;6.590;2023-01-09T09:49:27;5.17;;;1.20;;
8540;SDS011;4308;51.294;6.590;2023-01-09T09:54:49;6.40;;;1.90;;
8540;SDS011;4308;51.294;6.590;2023-01-09T09:57:18;3.33;;;1.50;;
8540;SDS011;4308;51.294;6.590;2023-01-09T09:59:48;5.97;;;1.47;;
8540;SDS011;4308;51.294;6.590;2023-01-09T10:02:23;3.57;;;1.10;;
8540;SDS011;4308;51.294;6.590;2023-01-09T10:05:06;4.93;;;1.30;;
8540;SDS011;4308;51.294;6.590;2023-01-09T10:07:40;3.33;;;1.53;;
8540;SDS011;4308;51.294;6.590;2023-01-09T10:10:11;7.57;;;1.80;;
8540;SDS011;4308;51.294;6.590;2023-01-09T10:12:45;3.73;;;1.30;;
8540;SDS011;4308;51.294;6.590;2023-01-09T10:15:16;2.80;;;1.30;;
8540;SDS011;4308;51.294;6.590;2023-01-09T10:18:02;3.63;;;1.43;;
8540;SDS011;4308;51.294;6.590;2023-01-09T10:20:36;6.53;;;1.10;;
8540;SDS011;4308;51.294;6.590;2023-01-09T10:25:55;7.63;;;1.77;;
8540;SDS011;4308;51.294;6.590;2023-01-09T10:36:37;5.30;;;1.40;;
8540;SDS011;4308;51.294;6.590;2023-01-09T10:38:53;2.63;;;1.30;;
8540;SDS011;4308;51.294;6.590;2023-01-09T10:44:13;4.27;;;1.20;;
8540;SDS011;4308;51.294;6.590;2023-01-09T10:46:50;4.50;;;1.37;;
8540;SDS011;4308;51.294;6.590;2023-01-09T10:49:19;4.07;;;1.10;;
8540;SDS011;4308;51.294;6.590;2023-01-09T10:54:20;3.97;;;1.40;;
8540;SDS011;4308;51.294;6.590;2023-01-09T10:56:59;3.93;;;1.60;;
8540;SDS011;4308;51.294;6.590;2023-01-09T10:59:28;6.93;;;1.60;;
8540;SDS011;4308;51.294;6.590;2023-01-09T11:01:56;2.27;;;1.47;;
8540;SDS011;4308;51.294;6.590;2023-01-09T11:04:58;6.77;;;1.77;;
8540;SDS011;4308;51.294;6.590;2023-01-09T11:07:18;5.33;;;1.30;;
8540;SDS011;4308;51.294;6.590;2023-01-09T11:10:00;9.53;;;1.50;;
8540;SDS011;4308;51.294;6.590;2023-01-09T11:12:29;3.27;;;1.30;;
8540;SDS011;4308;51.294;6.590;2023-01-09T11:18:17;5.07;;;1.53;;
8540;SDS011;4308;51.294;6.590;2023-01-09T11:20:45;3.93;;;1.50;;
8540;SDS011;4308;51.294;6.590;2023-01-09T11:25:51;6.20;;;1.60;;
8540;SDS011;4308;51.294;6.590;2023-01-09T11:28:19;2.40;;;1.27;;
8540;SDS011;4308;51.294;6.590;2023-01-09T11:30:54;4.87;;;1.20;;
8540;SDS011;4308;51.294;6.590;2023-01-09T11:33:29;3.53;;;1.00;;
8540;SDS011;4308;51.294;6.590;2023-01-09T11:38:29;2.53;;;1.10;;
8540;SDS011;4308;51.294;6.590;2023-01-09T11:41:00;5.33;;;1.50;;
8540;SDS011;4308;51.294;6.590;2023-01-09T11:43:30;1.83;;;1.10;;
8540;SDS011;4308;51.294;6.590;2023-01-09T11:46:01;3.57;;;1.33;;
8540;SDS011;4308;51.294;6.590;2023-01-09T11:48:40;3.93;;;1.40;;
8540;SDS011;4308;51.294;6.590;2023-01-09T11:51:20;1.87;;;1.37;;
8540;SDS011;4308;51.294;6.590;2023-01-09T11:53:50;5.10;;;1.40;;
8540;SDS011;4308;51.294;6.590;2023-01-09T11:56:19;3.40;;;1.30;;
8540;SDS011;4308;51.294;6.590;2023-01-09T11:58:47;3.97;;;1.33;;
8540;SDS011;4308;51.294;6.590;2023-01-09T12:10:18;2.73;;;1.17;;
8540;SDS011;4308;51.294;6.590;2023-01-09T12:14:47;2.17;;;1.20;;
8540;SDS011;4308;51.294;6.590;2023-01-09T12:22:24;4.20;;;1.00;;
8540;SDS011;4308;51.294;6.590;2023-01-09T12:27:36;2.93;;;1.03;;
8540;SDS011;4308;51.294;6.590;2023-01-09T12:45:50;3.17;;;1.70;;
8540;SDS011;4308;51.294;6.590;2023-01-09T12:53:35;3.10;;;1.60;;
8540;SDS011;4308;51.294;6.590;2023-01-09T12:56:38;2.40;;;1.80;;
8540;SDS011;4308;51.294;6.590;2023-01-09T12:58:59;2.70;;;1.47;;
8540;SDS011;4308;51.294;6.590;2023-01-09T13:01:31;4.03;;;1.80;;
8540;SDS011;4308;51.294;6.590;2023-01-09T13:06:30;10.37;;;3.13;;
8540;SDS011;4308;51.294;6.590;2023-01-09T13:09:12;4.70;;;1.97;;
8540;SDS011;4308;51.294;6.590;2023-01-09T13:11:46;4.47;;;1.83;;
8540;SDS011;4308;51.294;6.590;2023-01-09T13:16:56;2.87;;;1.53;;
8540;SDS011;4308;51.294;6.590;2023-01-09T13:19:28;5.47;;;1.80;;
8540;SDS011;4308;51.294;6.590;2023-01-09T13:21:57;2.87;;;1.50;;
8540;SDS011;4308;51.294;6.590;2023-01-09T13:24:30;3.30;;;1.90;;
8540;SDS011;4308;51.294;6.590;2023-01-09T13:27:01;3.00;;;1.50;;
8540;SDS011;4308;51.294;6.590;2023-01-09T13:29:34;4.80;;;1.70;;
8540;SDS011;4308;51.294;6.590;2023-01-09T13:32:06;4.63;;;1.67;;
8540;SDS011;4308;51.294;6.590;2023-01-09T13:34:35;1.90;;;1.40;;
8540;SDS011;4308;51.294;6.590;2023-01-09T13:37:03;4.00;;;1.80;;
8540;SDS011;4308;51.294;6.590;2023-01-09T13:39:32;6.17;;;1.80;;
8540;SDS011;4308;51.294;6.590;2023-01-09T13:42:01;4.00;;;1.50;;
8540;SDS011;4308;51.294;6.590;2023-01-09T13:44:29;3.20;;;1.50;;
8540;SDS011;4308;51.294;6.590;2023-01-09T13:47:01;4.43;;;1.63;;
8540;SDS011;4308;51.294;6.590;2023-01-09T13:52:04;2.60;;;1.53;;
8540;SDS011;4308;51.294;6.590;2023-01-09T13:59:46;3.47;;;1.70;;
8540;SDS011;4308;51.294;6.590;2023-01-09T14:05:00;4.27;;;1.83;;
8540;SDS011;4308;51.294;6.590;2023-01-09T14:07:31;2.97;;;1.60;;
8540;SDS011;4308;51.294;6.590;2023-01-09T14:10:00;4.33;;;2.27;;
8540;SDS011;4308;51.294;6.590;2023-01-09T14:12:29;6.33;;;2.20;;
8540;SDS011;4308;51.294;6.590;2023-01-09T14:15:01;4.23;;;1.63;;
8540;SDS011;4308;51.294;6.590;2023-01-09T14:17:33;5.30;;;1.90;;
8540;SDS011;4308;51.294;6.590;2023-01-09T14:20:06;6.60;;;2.10;;
8540;SDS011;4308;51.294;6.590;2023-01-09T14:22:35;4.57;;;1.83;;
8540;SDS011;4308;51.294;6.590;2023-01-09T14:25:23;6.70;;;2.20;;
8540;SDS011;4308;51.294;6.590;2023-01-09T14:30:29;4.20;;;1.90;;
8540;SDS011;4308;51.294;6.590;2023-01-09T14:38:00;3.90;;;1.60;;
8540;SDS011;4308;51.294;6.590;2023-01-09T14:40:28;4.20;;;2.40;;
8540;SDS011;4308;51.294;6.590;2023-01-09T14:42:56;7.27;;;2.50;;
8540;SDS011;4308;51.294;6.590;2023-01-09T14:45:26;5.83;;;1.90;;
8540;SDS011;4308;51.294;6.590;2023-01-09T14:48:01;3.87;;;1.80;;
8540;SDS011;4308;51.294;6.590;2023-01-09T14:53:04;3.50;;;1.60;;
8540;SDS011;4308;51.294;6.590;2023-01-09T14:55:41;4.10;;;1.73;;
8540;SDS011;4308;51.294;6.590;2023-01-09T15:01:10;5.17;;;1.87;;
8540;SDS011;4308;51.294;6.590;2023-01-09T15:03:38;6.60;;;2.20;;
8540;SDS011;4308;51.294;6.590;2023-01-09T15:06:09;4.03;;;2.00;;
8540;SDS011;4308;51.294;6.590;2023-01-09T15:08:38;4.07;;;1.77;;
8540;SDS011;4308;51.294;6.590;2023-01-09T15:11:11;6.93;;;2.00;;
8540;SDS011;4308;51.294;6.590;2023-01-09T15:13:43;3.40;;;1.83;;
8540;SDS011;4308;51.294;6.590;2023-01-09T15:16:16;5.73;;;1.73;;
8540;SDS011;4308;51.294;6.590;2023-01-09T15:18:45;5.13;;;2.10;;
8540;SDS011;4308;51.294;6.590;2023-01-09T15:21:18;4.73;;;2.67;;
8540;SDS011;4308;51.294;6.590;2023-01-09T15:23:48;4.20;;;2.47;;
8540;SDS011;4308;51.294;6.590;2023-01-09T15:28:46;3.47;;;2.17;;
8540;SDS011;4308;51.294;6.590;2023-01-09T15:31:15;7.50;;;2.00;;
8540;SDS011;4308;51.294;6.590;2023-01-09T15:33:45;5.23;;;2.00;;
8540;SDS011;4308;51.294;6.590;2023-01-09T15:36:17;5.00;;;2.20;;
8540;SDS011;4308;51.294;6.590;2023-01-09T15:38:46;5.43;;;2.30;;
8540;SDS011;4308;51.294;6.590;2023-01-09T15:41:16;5.73;;;2.60;;
8540;SDS011;4308;51.294;6.590;2023-01-09T15:43:44;7.13;;;3.07;;
8540;SDS011;4308;51.294;6.590;2023-01-09T15:46:13;4.83;;;2.50;;
8540;SDS011;4308;51.294;6.590;2023-01-09T15:48:41;5.33;;;2.70;;
8540;SDS011;4308;51.294;6.590;2023-01-09T15:51:13;5.80;;;2.40;;
8540;SDS011;4308;51.294;6.590;2023-01-09T15:53:41;5.13;;;2.83;;
8540;SDS011;4308;51.294;6.590;2023-01-09T15:58:39;5.47;;;2.40;;
8540;SDS011;4308;51.294;6.590;2023-01-09T16:01:22;9.57;;;2.43;;
8540;SDS011;4308;51.294;6.590;2023-01-09T16:03:52;4.73;;;2.83;;
8540;SDS011;4308;51.294;6.590;2023-01-09T16:06:22;6.43;;;2.70;;
8540;SDS011;4308;51.294;6.590;2023-01-09T16:08:51;3.70;;;2.57;;
8540;SDS011;4308;51.294;6.590;2023-01-09T16:13:54;11.00;;;3.80;;
8540;SDS011;4308;51.294;6.590;2023-01-09T16:16:27;3.87;;;2.70;;
8540;SDS011;4308;51.294;6.590;2023-01-09T16:18:56;3.90;;;2.60;;
8540;SDS011;4308;51.294;6.590;2023-01-09T16:21:31;4.60;;;2.60;;
8540;SDS011;4308;51.294;6.590;2023-01-09T16:26:29;8.33;;;3.10;;
8540;SDS011;4308;51.294;6.590;2023-01-09T16:31:44;6.03;;;2.90;;
8540;SDS011;4308;51.294;6.590;2023-01-09T16:34:12;6.97;;;3.13;;
8540;SDS011;4308;51.294;6.590;2023-01-09T16:36:39;7.27;;;3.03;;
8540;SDS011;4308;51.294;6.590;2023-01-09T16:39:11;8.07;;;3.20;;
8540;SDS011;4308;51.294;6.590;2023-01-09T16:41:41;7.30;;;3.00;;
8540;SDS011;4308;51.294;6.590;2023-01-09T16:44:08;5.37;;;3.00;;
8540;SDS011;4308;51.294;6.590;2023-01-09T16:46:40;8.83;;;4.00;;
8540;SDS011;4308;51.294;6.590;2023-01-09T16:49:18;8.40;;;3.40;;
8540;SDS011;4308;51.294;6.590;2023-01-09T16:51:46;7.27;;;3.37;;
8540;SDS011;4308;51.294;6.590;2023-01-09T16:54:14;6.80;;;3.40;;
8540;SDS011;4308;51.294;6.590;2023-01-09T16:56:43;5.47;;;4.07;;
8540;SDS011;4308;51.294;6.590;2023-01-09T16:59:12;8.17;;;4.13;;
8540;SDS011;4308;51.294;6.590;2023-01-09T17:01:40;6.90;;;3.70;;
8540;SDS011;4308;51.294;6.590;2023-01-09T17:04:09;9.17;;;3.67;;
8540;SDS011;4308;51.294;6.590;2023-01-09T17:06:37;6.10;;;3.47;;
8540;SDS011;4308;51.294;6.590;2023-01-09T17:09:05;7.07;;;3.37;;
8540;SDS011;4308;51.294;6.590;2023-01-09T17:11:33;7.47;;;3.40;;
8540;SDS011;4308;51.294;6.590;2023-01-09T17:14:01;5.97;;;3.37;;
8540;SDS011;4308;51.294;6.590;2023-01-09T17:16:28;5.50;;;3.03;;
8540;SDS011;4308;51.294;6.590;2023-01-09T17:18:56;8.67;;;3.47;;
8540;SDS011;4308;51.294;6.590;2023-01-09T17:21:25;5.20;;;3.10;;
8540;SDS011;4308;51.294;6.590;2023-01-09T17:23:52;12.87;;;3.57;;
8540;SDS011;4308;51.294;6.590;2023-01-09T17:26:20;7.23;;;3.20;;
8540;SDS011;4308;51.294;6.590;2023-01-09T17:28:48;7.27;;;3.67;;
8540;SDS011;4308;51.294;6.590;2023-01-09T17:31:21;7.53;;;3.27;;
8540;SDS011;4308;51.294;6.590;2023-01-09T17:33:48;6.13;;;3.80;;
8540;SDS011;4308;51.294;6.590;2023-01-09T17:38:53;4.57;;;3.20;;
8540;SDS011;4308;51.294;6.590;2023-01-09T17:41:21;7.67;;;4.07;;
8540;SDS011;4308;51.294;6.590;2023-01-09T17:43:49;6.60;;;3.30;;
8540;SDS011;4308;51.294;6.590;2023-01-09T17:46:20;11.57;;;4.43;;